sensor_id;sensor_type;location;lat;lon;timestamp;temperature;humidity
47540;DHT22;33280;52.152;21.052;2023-01-01T00:02:25;12.80;99.90
47540;DHT22;33280;52.152;21.052;2023-01-01T00:04:59;12.90;99.90
47540;DHT22;33280;52.152;21.052;2023-01-01T00:07:26;13.00;99.90
47540;DHT22;33280;52.152;21.052;2023-01-01T00:09:52;13.00;99.90
47540;DHT22;33280;52.152;21.052;2023-01-01T00:12:38;12.90;99.90
47540;DHT22;33280;52.152;21.052;2023-01-01T00:15:06;12.90;99.90
47540;DHT22;33280;52.152;21.052;2023-01-01T00:17:33;12.90;99.90
47540;DHT22;33280;52.152;21.052;2023-01-01T00:20:00;12.90;99.90
47540;DHT22;33280;52.152;21.052;2023-01-01T00:22:27;13.00;99.90
47540;DHT22;33280;52.152;21.052;2023-01-01T00:25:13;13.00;99.90
47540;DHT22;33280;52.152;21.052;2023-01-01T00:27:41;13.00;99.90
47540;DHT22;33280;52.152;21.052;2023-01-01T00:30:09;12.90;99.90
47540;DHT22;33280;52.152;21.052;2023-01-01T00:32:36;12.90;99.90
47540;DHT22;33280;52.152;21.052;2023-01-01T00:35:03;12.90;99.90
47540;DHT22;33280;52.152;21.052;2023-01-01T00:37:30;12.90;99.90
47540;DHT22;33280;52.152;21.052;2023-01-01T00:39:57;12.90;99.90
47540;DHT22;33280;52.152;21.052;2023-01-01T00:42:24;12.90;99.90
47540;DHT22;33280;52.152;21.052;2023-01-01T00:44:51;12.90;99.90
47540;DHT22;33280;52.152;21.052;2023-01-01T00:47:18;12.90;99.90
47540;DHT22;33280;52.152;21.052;2023-01-01T00:49:45;12.90;99.90
47540;DHT22;33280;52.152;21.052;2023-01-01T00:52:12;12.80;99.90
47540;DHT22;33280;52.152;21.052;2023-01-01T00:54:39;12.80;99.90
47540;DHT22;33280;52.152;21.052;2023-01-01T00:57:06;12.80;99.90
47540;DHT22;33280;52.152;21.052;2023-01-01T00:59:33;12.80;99.90
47540;DHT22;33280;52.152;21.052;2023-01-01T01:02:00;12.80;99.90
47540;DHT22;33280;52.152;21.052;2023-01-01T01:04:27;12.70;99.90
47540;DHT22;33280;52.152;21.052;2023-01-01T01:06:54;12.70;99.90
47540;DHT22;33280;52.152;21.052;2023-01-01T01:09:21;12.80;99.90
47540;DHT22;33280;52.152;21.052;2023-01-01T01:11:47;12.80;99.90
47540;DHT22;33280;52.152;21.052;2023-01-01T01:14:14;12.70;99.90
47540;DHT22;33280;52.152;21.052;2023-01-01T01:16:41;12.70;99.90
47540;DHT22;33280;52.152;21.052;2023-01-01T01:19:09;12.70;99.90
47540;DHT22;33280;52.152;21.052;2023-01-01T01:21:40;12.70;99.90
47540;DHT22;33280;52.152;21.052;2023-01-01T01:24:09;12.70;99.90
47540;DHT22;33280;52.152;21.052;2023-01-01T01:26:36;12.70;99.90
47540;DHT22;33280;52.152;21.052;2023-01-01T01:29:03;12.80;99.90
47540;DHT22;33280;52.152;21.052;2023-01-01T01:31:31;12.80;99.90
47540;DHT22;33280;52.152;21.052;2023-01-01T01:33:59;12.80;99.90
47540;DHT22;33280;52.152;21.052;2023-01-01T01:36:27;12.80;99.90
47540;DHT22;33280;52.152;21.052;2023-01-01T01:38:55;12.80;99.90
47540;DHT22;33280;52.152;21.052;2023-01-01T01:41:23;12.80;99.90
47540;DHT22;33280;52.152;21.052;2023-01-01T01:44:05;12.80;99.90
47540;DHT22;33280;52.152;21.052;2023-01-01T01:46:38;12.80;99.90
47540;DHT22;33280;52.152;21.052;2023-01-01T01:49:16;12.80;99.90
47540;DHT22;33280;52.152;21.052;2023-01-01T01:51:46;12.80;99.90
47540;DHT22;33280;52.152;21.052;2023-01-01T01:54:21;12.80;99.90
47540;DHT22;33280;52.152;21.052;2023-01-01T01:57:09;12.80;99.90
47540;DHT22;33280;52.152;21.052;2023-01-01T01:59:43;12.90;99.90
47540;DHT22;33280;52.152;21.052;2023-01-01T02:02:36;12.90;99.90
47540;DHT22;33280;52.152;21.052;2023-01-01T02:05:05;12.90;99.90
47540;DHT22;33280;52.152;21.052;2023-01-01T02:07:33;12.90;99.90
47540;DHT22;33280;52.152;21.052;2023-01-01T02:10:02;12.80;99.90
47540;DHT22;33280;52.152;21.052;2023-01-01T02:12:29;12.90;99.90
47540;DHT22;33280;52.152;21.052;2023-01-01T02:14:56;12.90;99.90
47540;DHT22;33280;52.152;21.052;2023-01-01T02:17:36;12.90;99.90
47540;DHT22;33280;52.152;21.052;2023-01-01T02:29:39;12.90;99.90
47540;DHT22;33280;52.152;21.052;2023-01-01T02:32:25;13.00;99.90
47540;DHT22;33280;52.152;21.052;2023-01-01T02:35:07;13.00;99.90
47540;DHT22;33280;52.152;21.052;2023-01-01T02:37:59;13.10;99.90
47540;DHT22;33280;52.152;21.052;2023-01-01T02:40:26;13.10;99.90
47540;DHT22;33280;52.152;21.052;2023-01-01T02:42:54;13.10;99.90
47540;DHT22;33280;52.152;21.052;2023-01-01T02:45:22;13.10;99.90
47540;DHT22;33280;52.152;21.052;2023-01-01T02:47:48;13.10;99.90
47540;DHT22;33280;52.152;21.052;2023-01-01T02:50:21;13.10;99.90
47540;DHT22;33280;52.152;21.052;2023-01-01T02:53:06;13.20;99.90
47540;DHT22;33280;52.152;21.052;2023-01-01T03:04:28;13.20;99.90
47540;DHT22;33280;52.152;21.052;2023-01-01T03:09:26;13.20;99.90
47540;DHT22;33280;52.152;21.052;2023-01-01T03:12:05;13.20;99.90
47540;DHT22;33280;52.152;21.052;2023-01-01T03:19:48;13.30;99.90
47540;DHT22;33280;52.152;21.052;2023-01-01T03:22:16;13.30;99.90
47540;DHT22;33280;52.152;21.052;2023-01-01T03:24:50;13.30;99.90
47540;DHT22;33280;52.152;21.052;2023-01-01T03:27:26;13.40;99.90
47540;DHT22;33280;52.152;21.052;2023-01-01T03:29:56;13.50;99.90
47540;DHT22;33280;52.152;21.052;2023-01-01T03:32:34;13.60;99.90
47540;DHT22;33280;52.152;21.052;2023-01-01T03:35:23;13.60;99.90
47540;DHT22;33280;52.152;21.052;2023-01-01T03:37:54;13.60;99.90
47540;DHT22;33280;52.152;21.052;2023-01-01T03:40:22;13.70;99.90
47540;DHT22;33280;52.152;21.052;2023-01-01T03:42:53;13.80;99.90
47540;DHT22;33280;52.152;21.052;2023-01-01T03:45:24;13.90;99.90
47540;DHT22;33280;52.152;21.052;2023-01-01T03:47:53;14.00;99.90
47540;DHT22;33280;52.152;21.052;2023-01-01T03:50:29;14.10;99.90
47540;DHT22;33280;52.152;21.052;2023-01-01T03:58:47;14.20;99.90
47540;DHT22;33280;52.152;21.052;2023-01-01T04:01:30;14.30;99.90
47540;DHT22;33280;52.152;21.052;2023-01-01T04:03:59;14.20;99.90
47540;DHT22;33280;52.152;21.052;2023-01-01T04:06:27;14.30;99.90
47540;DHT22;33280;52.152;21.052;2023-01-01T04:08:57;14.30;99.90
47540;DHT22;33280;52.152;21.052;2023-01-01T04:11:27;14.30;99.90
47540;DHT22;33280;52.152;21.052;2023-01-01T04:14:29;14.40;99.90
47540;DHT22;33280;52.152;21.052;2023-01-01T04:16:57;14.40;99.90
47540;DHT22;33280;52.152;21.052;2023-01-01T04:19:24;14.40;99.90
47540;DHT22;33280;52.152;21.052;2023-01-01T04:21:51;14.50;99.90
47540;DHT22;33280;52.152;21.052;2023-01-01T04:24:18;14.50;99.90
47540;DHT22;33280;52.152;21.052;2023-01-01T04:26:45;14.50;99.90
47540;DHT22;33280;52.152;21.052;2023-01-01T04:29:12;14.50;99.90
47540;DHT22;33280;52.152;21.052;2023-01-01T04:31:39;14.50;99.90
47540;DHT22;33280;52.152;21.052;2023-01-01T04:34:07;14.50;99.90
47540;DHT22;33280;52.152;21.052;2023-01-01T04:36:34;14.50;99.90
47540;DHT22;33280;52.152;21.052;2023-01-01T04:39:02;14.50;99.90
47540;DHT22;33280;52.152;21.052;2023-01-01T04:41:29;14.50;99.90
47540;DHT22;33280;52.152;21.052;2023-01-01T04:43:55;14.40;99.90
47540;DHT22;33280;52.152;21.052;2023-01-01T04:46:24;14.40;99.90
47540;DHT22;33280;52.152;21.052;2023-01-01T04:48:51;14.40;99.90
47540;DHT22;33280;52.152;21.052;2023-01-01T04:51:19;14.40;99.90
47540;DHT22;33280;52.152;21.052;2023-01-01T04:53:47;14.40;99.90
47540;DHT22;33280;52.152;21.052;2023-01-01T04:56:17;14.40;99.90
47540;DHT22;33280;52.152;21.052;2023-01-01T04:58:45;14.40;99.90
47540;DHT22;33280;52.152;21.052;2023-01-01T05:01:22;14.40;99.90
47540;DHT22;33280;52.152;21.052;2023-01-01T05:03:50;14.40;99.90
47540;DHT22;33280;52.152;21.052;2023-01-01T05:06:17;14.40;99.90
47540;DHT22;33280;52.152;21.052;2023-01-01T05:08:47;14.40;99.90
47540;DHT22;33280;52.152;21.052;2023-01-01T05:11:18;14.40;99.90
47540;DHT22;33280;52.152;21.052;2023-01-01T05:13:48;14.40;99.90
47540;DHT22;33280;52.152;21.052;2023-01-01T05:16:20;14.40;99.90
47540;DHT22;33280;52.152;21.052;2023-01-01T05:18:47;14.50;99.90
47540;DHT22;33280;52.152;21.052;2023-01-01T05:21:23;14.50;99.90
47540;DHT22;33280;52.152;21.052;2023-01-01T05:23:54;14.50;99.90
47540;DHT22;33280;52.152;21.052;2023-01-01T05:26:24;14.50;99.90
47540;DHT22;33280;52.152;21.052;2023-01-01T05:28:51;14.50;99.90
47540;DHT22;33280;52.152;21.052;2023-01-01T05:31:20;14.50;99.90
47540;DHT22;33280;52.152;21.052;2023-01-01T05:33:49;14.50;99.90
47540;DHT22;33280;52.152;21.052;2023-01-01T05:36:18;14.50;99.90
47540;DHT22;33280;52.152;21.052;2023-01-01T05:38:45;14.50;99.90
47540;DHT22;33280;52.152;21.052;2023-01-01T05:41:14;14.60;99.90
47540;DHT22;33280;52.152;21.052;2023-01-01T05:43:41;14.60;99.90
47540;DHT22;33280;52.152;21.052;2023-01-01T05:46:18;14.50;99.90
47540;DHT22;33280;52.152;21.052;2023-01-01T05:48:46;14.50;99.90
47540;DHT22;33280;52.152;21.052;2023-01-01T05:51:16;14.60;99.90
47540;DHT22;33280;52.152;21.052;2023-01-01T05:53:44;14.50;99.90
47540;DHT22;33280;52.152;21.052;2023-01-01T05:56:12;14.50;99.90
47540;DHT22;33280;52.152;21.052;2023-01-01T05:58:40;14.50;99.90
47540;DHT22;33280;52.152;21.052;2023-01-01T06:01:16;14.50;99.90
47540;DHT22;33280;52.152;21.052;2023-01-01T06:03:43;14.50;99.90
47540;DHT22;33280;52.152;21.052;2023-01-01T06:06:12;14.50;99.90
47540;DHT22;33280;52.152;21.052;2023-01-01T06:08:40;14.50;99.90
47540;DHT22;33280;52.152;21.052;2023-01-01T06:11:10;14.50;99.90
47540;DHT22;33280;52.152;21.052;2023-01-01T06:13:37;14.40;99.90
47540;DHT22;33280;52.152;21.052;2023-01-01T06:16:04;14.40;99.90
47540;DHT22;33280;52.152;21.052;2023-01-01T06:18:33;14.40;99.90
47540;DHT22;33280;52.152;21.052;2023-01-01T06:23:38;14.30;99.90
47540;DHT22;33280;52.152;21.052;2023-01-01T06:26:10;14.30;99.90
47540;DHT22;33280;52.152;21.052;2023-01-01T06:28:39;14.30;99.90
47540;DHT22;33280;52.152;21.052;2023-01-01T06:31:08;14.20;99.90
47540;DHT22;33280;52.152;21.052;2023-01-01T06:33:36;14.20;99.90
47540;DHT22;33280;52.152;21.052;2023-01-01T06:36:06;14.10;99.90
47540;DHT22;33280;52.152;21.052;2023-01-01T06:38:35;14.10;99.90
47540;DHT22;33280;52.152;21.052;2023-01-01T06:41:04;14.10;99.90
47540;DHT22;33280;52.152;21.052;2023-01-01T06:43:33;14.10;99.90
47540;DHT22;33280;52.152;21.052;2023-01-01T06:48:35;14.10;99.90
47540;DHT22;33280;52.152;21.052;2023-01-01T06:51:10;14.00;99.90
47540;DHT22;33280;52.152;21.052;2023-01-01T06:53:38;14.00;99.90
47540;DHT22;33280;52.152;21.052;2023-01-01T06:56:05;14.00;99.90
47540;DHT22;33280;52.152;21.052;2023-01-01T06:58:32;14.00;99.90
47540;DHT22;33280;52.152;21.052;2023-01-01T07:01:16;13.90;99.90
47540;DHT22;33280;52.152;21.052;2023-01-01T07:03:58;14.00;99.90
47540;DHT22;33280;52.152;21.052;2023-01-01T07:06:27;14.00;99.90
47540;DHT22;33280;52.152;21.052;2023-01-01T07:08:55;14.00;99.90
47540;DHT22;33280;52.152;21.052;2023-01-01T07:11:22;14.00;99.90
47540;DHT22;33280;52.152;21.052;2023-01-01T07:13:49;14.00;99.90
47540;DHT22;33280;52.152;21.052;2023-01-01T07:16:16;14.00;99.90
47540;DHT22;33280;52.152;21.052;2023-01-01T07:18:44;14.00;99.90
47540;DHT22;33280;52.152;21.052;2023-01-01T07:23:55;14.00;99.90
47540;DHT22;33280;52.152;21.052;2023-01-01T07:26:23;14.20;99.90
47540;DHT22;33280;52.152;21.052;2023-01-01T07:28:51;14.20;99.90
47540;DHT22;33280;52.152;21.052;2023-01-01T07:31:18;14.20;99.90
47540;DHT22;33280;52.152;21.052;2023-01-01T07:33:45;14.30;99.90
47540;DHT22;33280;52.152;21.052;2023-01-01T07:36:12;14.30;99.90
47540;DHT22;33280;52.152;21.052;2023-01-01T07:38:39;14.40;99.90
47540;DHT22;33280;52.152;21.052;2023-01-01T07:41:06;14.40;99.90
47540;DHT22;33280;52.152;21.052;2023-01-01T07:43:34;14.50;99.90
47540;DHT22;33280;52.152;21.052;2023-01-01T07:46:01;14.50;99.90
47540;DHT22;33280;52.152;21.052;2023-01-01T07:48:28;14.50;99.90
47540;DHT22;33280;52.152;21.052;2023-01-01T07:51:03;14.60;99.90
47540;DHT22;33280;52.152;21.052;2023-01-01T07:53:30;14.70;99.90
47540;DHT22;33280;52.152;21.052;2023-01-01T07:55:57;14.80;99.90
47540;DHT22;33280;52.152;21.052;2023-01-01T07:58:24;14.90;99.90
47540;DHT22;33280;52.152;21.052;2023-01-01T08:00:51;14.90;99.90
47540;DHT22;33280;52.152;21.052;2023-01-01T08:03:18;15.00;99.90
47540;DHT22;33280;52.152;21.052;2023-01-01T08:05:45;15.10;99.90
47540;DHT22;33280;52.152;21.052;2023-01-01T08:08:14;15.20;99.90
47540;DHT22;33280;52.152;21.052;2023-01-01T08:10:41;15.40;99.90
47540;DHT22;33280;52.152;21.052;2023-01-01T08:13:08;15.50;99.90
47540;DHT22;33280;52.152;21.052;2023-01-01T08:15:35;15.60;99.90
47540;DHT22;33280;52.152;21.052;2023-01-01T08:18:04;15.70;99.90
47540;DHT22;33280;52.152;21.052;2023-01-01T08:20:32;15.70;99.90
47540;DHT22;33280;52.152;21.052;2023-01-01T08:23:00;15.70;99.90
47540;DHT22;33280;52.152;21.052;2023-01-01T08:25:33;15.80;99.90
47540;DHT22;33280;52.152;21.052;2023-01-01T08:28:00;15.90;99.90
47540;DHT22;33280;52.152;21.052;2023-01-01T08:30:27;15.90;99.90
47540;DHT22;33280;52.152;21.052;2023-01-01T08:32:55;16.00;99.90
47540;DHT22;33280;52.152;21.052;2023-01-01T08:35:22;16.10;99.90
47540;DHT22;33280;52.152;21.052;2023-01-01T08:37:49;16.10;99.90
47540;DHT22;33280;52.152;21.052;2023-01-01T08:40:17;16.20;99.90
47540;DHT22;33280;52.152;21.052;2023-01-01T08:42:44;16.20;99.90
47540;DHT22;33280;52.152;21.052;2023-01-01T08:45:11;16.20;99.90
47540;DHT22;33280;52.152;21.052;2023-01-01T08:47:37;16.10;99.90
47540;DHT22;33280;52.152;21.052;2023-01-01T08:50:05;16.00;99.90
47540;DHT22;33280;52.152;21.052;2023-01-01T08:52:32;16.00;99.90
47540;DHT22;33280;52.152;21.052;2023-01-01T08:54:59;15.90;99.90
47540;DHT22;33280;52.152;21.052;2023-01-01T08:57:29;15.90;99.90
47540;DHT22;33280;52.152;21.052;2023-01-01T08:59:57;15.90;99.90
47540;DHT22;33280;52.152;21.052;2023-01-01T09:02:24;15.90;99.90
47540;DHT22;33280;52.152;21.052;2023-01-01T09:04:51;15.90;99.90
47540;DHT22;33280;52.152;21.052;2023-01-01T09:07:18;16.00;99.90
47540;DHT22;33280;52.152;21.052;2023-01-01T09:09:45;16.00;99.90
47540;DHT22;33280;52.152;21.052;2023-01-01T09:12:14;16.10;99.90
47540;DHT22;33280;52.152;21.052;2023-01-01T09:14:42;16.20;99.90
47540;DHT22;33280;52.152;21.052;2023-01-01T09:17:12;16.20;99.90
47540;DHT22;33280;52.152;21.052;2023-01-01T09:19:39;16.30;99.90
47540;DHT22;33280;52.152;21.052;2023-01-01T09:22:09;16.50;99.90
47540;DHT22;33280;52.152;21.052;2023-01-01T09:24:37;16.50;99.90
47540;DHT22;33280;52.152;21.052;2023-01-01T09:27:04;16.60;99.90
47540;DHT22;33280;52.152;21.052;2023-01-01T09:29:32;16.70;99.90
47540;DHT22;33280;52.152;21.052;2023-01-01T09:31:59;16.70;99.90
47540;DHT22;33280;52.152;21.052;2023-01-01T09:34:26;16.80;99.90
47540;DHT22;33280;52.152;21.052;2023-01-01T09:36:53;16.80;99.90
47540;DHT22;33280;52.152;21.052;2023-01-01T09:39:22;16.90;99.90
47540;DHT22;33280;52.152;21.052;2023-01-01T09:47:29;17.30;99.90
47540;DHT22;33280;52.152;21.052;2023-01-01T09:50:06;17.40;99.90
47540;DHT22;33280;52.152;21.052;2023-01-01T09:55:49;17.60;99.90
47540;DHT22;33280;52.152;21.052;2023-01-01T10:12:41;18.10;99.90
47540;DHT22;33280;52.152;21.052;2023-01-01T10:15:24;18.20;99.90
47540;DHT22;33280;52.152;21.052;2023-01-01T10:17:58;18.30;99.90
47540;DHT22;33280;52.152;21.052;2023-01-01T10:20:41;18.30;99.90
47540;DHT22;33280;52.152;21.052;2023-01-01T10:23:20;18.30;99.90
47540;DHT22;33280;52.152;21.052;2023-01-01T10:25:51;18.20;99.90
47540;DHT22;33280;52.152;21.052;2023-01-01T10:28:29;18.20;99.90
47540;DHT22;33280;52.152;21.052;2023-01-01T10:31:22;18.20;99.90
47540;DHT22;33280;52.152;21.052;2023-01-01T10:33:51;18.00;99.90
47540;DHT22;33280;52.152;21.052;2023-01-01T10:36:18;17.90;99.90
47540;DHT22;33280;52.152;21.052;2023-01-01T10:38:47;17.80;99.90
47540;DHT22;33280;52.152;21.052;2023-01-01T10:41:15;17.70;99.90
47540;DHT22;33280;52.152;21.052;2023-01-01T10:43:46;17.70;99.90
47540;DHT22;33280;52.152;21.052;2023-01-01T10:46:20;17.70;99.90
47540;DHT22;33280;52.152;21.052;2023-01-01T10:49:07;17.80;99.90
47540;DHT22;33280;52.152;21.052;2023-01-01T10:51:41;17.80;99.90
47540;DHT22;33280;52.152;21.052;2023-01-01T10:56:58;17.80;99.90
47540;DHT22;33280;52.152;21.052;2023-01-01T10:59:33;17.70;99.90
47540;DHT22;33280;52.152;21.052;2023-01-01T11:04:45;17.90;99.90
47540;DHT22;33280;52.152;21.052;2023-01-01T11:07:27;17.90;99.90
47540;DHT22;33280;52.152;21.052;2023-01-01T11:10:05;17.90;99.90
47540;DHT22;33280;52.152;21.052;2023-01-01T11:12:36;17.90;99.90
47540;DHT22;33280;52.152;21.052;2023-01-01T11:15:38;17.90;99.90
47540;DHT22;33280;52.152;21.052;2023-01-01T11:18:22;18.00;99.90
47540;DHT22;33280;52.152;21.052;2023-01-01T11:20:53;18.00;99.90
47540;DHT22;33280;52.152;21.052;2023-01-01T11:28:39;18.20;99.90
47540;DHT22;33280;52.152;21.052;2023-01-01T11:31:14;18.20;99.90
47540;DHT22;33280;52.152;21.052;2023-01-01T11:33:50;18.30;99.90
47540;DHT22;33280;52.152;21.052;2023-01-01T11:36:23;18.30;99.90
47540;DHT22;33280;52.152;21.052;2023-01-01T11:41:45;18.40;99.90
47540;DHT22;33280;52.152;21.052;2023-01-01T11:44:40;18.50;99.90
47540;DHT22;33280;52.152;21.052;2023-01-01T11:47:37;18.70;99.90
47540;DHT22;33280;52.152;21.052;2023-01-01T11:52:49;19.30;99.90
47540;DHT22;33280;52.152;21.052;2023-01-01T12:00:24;19.80;99.90
47540;DHT22;33280;52.152;21.052;2023-01-01T12:03:05;19.80;99.40
47540;DHT22;33280;52.152;21.052;2023-01-01T12:05:47;19.50;99.60
47540;DHT22;33280;52.152;21.052;2023-01-01T12:08:27;19.40;99.90
47540;DHT22;33280;52.152;21.052;2023-01-01T12:11:16;19.10;99.90
47540;DHT22;33280;52.152;21.052;2023-01-01T12:13:58;18.90;99.90
47540;DHT22;33280;52.152;21.052;2023-01-01T12:16:40;18.70;99.90
47540;DHT22;33280;52.152;21.052;2023-01-01T12:19:19;18.60;99.90
47540;DHT22;33280;52.152;21.052;2023-01-01T12:21:50;18.60;99.90
47540;DHT22;33280;52.152;21.052;2023-01-01T12:24:20;18.50;99.90
47540;DHT22;33280;52.152;21.052;2023-01-01T12:30:10;18.50;99.90
47540;DHT22;33280;52.152;21.052;2023-01-01T12:33:39;18.40;99.90
47540;DHT22;33280;52.152;21.052;2023-01-01T12:36:27;18.40;99.90
47540;DHT22;33280;52.152;21.052;2023-01-01T12:51:22;18.30;99.90
47540;DHT22;33280;52.152;21.052;2023-01-01T12:56:50;18.30;99.90
47540;DHT22;33280;52.152;21.052;2023-01-01T12:59:27;18.20;99.90
47540;DHT22;33280;52.152;21.052;2023-01-01T13:01:55;18.20;99.90
47540;DHT22;33280;52.152;21.052;2023-01-01T13:04:21;18.20;99.90
47540;DHT22;33280;52.152;21.052;2023-01-01T13:07:05;18.10;99.90
47540;DHT22;33280;52.152;21.052;2023-01-01T13:09:47;18.00;99.90
47540;DHT22;33280;52.152;21.052;2023-01-01T13:12:16;17.90;99.90
47540;DHT22;33280;52.152;21.052;2023-01-01T13:14:47;17.90;99.90
47540;DHT22;33280;52.152;21.052;2023-01-01T13:17:21;17.90;99.90
47540;DHT22;33280;52.152;21.052;2023-01-01T13:19:55;17.90;99.90
47540;DHT22;33280;52.152;21.052;2023-01-01T13:38:53;17.60;99.90
47540;DHT22;33280;52.152;21.052;2023-01-01T13:41:42;17.60;99.90
47540;DHT22;33280;52.152;21.052;2023-01-01T13:44:15;17.50;99.90
47540;DHT22;33280;52.152;21.052;2023-01-01T13:52:31;17.40;99.90
47540;DHT22;33280;52.152;21.052;2023-01-01T13:58:23;17.30;99.90
47540;DHT22;33280;52.152;21.052;2023-01-01T14:03:26;17.20;99.90
47540;DHT22;33280;52.152;21.052;2023-01-01T14:05:59;17.10;99.90
47540;DHT22;33280;52.152;21.052;2023-01-01T14:08:31;17.10;99.90
47540;DHT22;33280;52.152;21.052;2023-01-01T14:10:59;17.00;99.90
47540;DHT22;33280;52.152;21.052;2023-01-01T14:13:29;16.90;99.90
47540;DHT22;33280;52.152;21.052;2023-01-01T14:16:02;16.80;99.90
47540;DHT22;33280;52.152;21.052;2023-01-01T14:18:48;16.70;99.90
47540;DHT22;33280;52.152;21.052;2023-01-01T14:21:29;16.70;99.90
47540;DHT22;33280;52.152;21.052;2023-01-01T14:24:05;16.60;99.90
47540;DHT22;33280;52.152;21.052;2023-01-01T14:26:36;16.50;99.90
47540;DHT22;33280;52.152;21.052;2023-01-01T14:29:07;16.40;99.90
47540;DHT22;33280;52.152;21.052;2023-01-01T14:31:42;16.40;99.90
47540;DHT22;33280;52.152;21.052;2023-01-01T14:36:54;16.30;99.90
47540;DHT22;33280;52.152;21.052;2023-01-01T14:42:18;16.20;99.90
47540;DHT22;33280;52.152;21.052;2023-01-01T14:44:48;16.10;99.90
47540;DHT22;33280;52.152;21.052;2023-01-01T14:49:46;16.10;99.90
47540;DHT22;33280;52.152;21.052;2023-01-01T14:52:21;16.00;99.90
47540;DHT22;33280;52.152;21.052;2023-01-01T14:54:50;16.00;99.90
47540;DHT22;33280;52.152;21.052;2023-01-01T14:57:30;16.00;99.90
47540;DHT22;33280;52.152;21.052;2023-01-01T14:59:57;16.00;99.90
47540;DHT22;33280;52.152;21.052;2023-01-01T15:02:39;15.90;99.90
47540;DHT22;33280;52.152;21.052;2023-01-01T15:08:00;15.80;99.90
47540;DHT22;33280;52.152;21.052;2023-01-01T15:10:29;15.70;99.90
47540;DHT22;33280;52.152;21.052;2023-01-01T15:12:58;15.70;99.90
47540;DHT22;33280;52.152;21.052;2023-01-01T15:15:38;15.60;99.90
47540;DHT22;33280;52.152;21.052;2023-01-01T15:18:43;15.50;99.90
47540;DHT22;33280;52.152;21.052;2023-01-01T15:21:15;15.40;99.90
47540;DHT22;33280;52.152;21.052;2023-01-01T15:23:57;15.50;99.90
47540;DHT22;33280;52.152;21.052;2023-01-01T15:28:58;15.20;99.90
47540;DHT22;33280;52.152;21.052;2023-01-01T15:31:40;15.20;99.90
47540;DHT22;33280;52.152;21.052;2023-01-01T15:34:40;15.00;99.90
47540;DHT22;33280;52.152;21.052;2023-01-01T15:42:46;15.00;99.90
47540;DHT22;33280;52.152;21.052;2023-01-01T15:45:27;14.90;99.90
47540;DHT22;33280;52.152;21.052;2023-01-01T15:48:19;14.90;99.90
47540;DHT22;33280;52.152;21.052;2023-01-01T15:53:24;15.00;99.90
47540;DHT22;33280;52.152;21.052;2023-01-01T15:56:09;14.90;99.90
47540;DHT22;33280;52.152;21.052;2023-01-01T16:01:36;14.90;99.90
47540;DHT22;33280;52.152;21.052;2023-01-01T16:04:10;14.90;99.90
47540;DHT22;33280;52.152;21.052;2023-01-01T16:06:44;14.90;99.90
47540;DHT22;33280;52.152;21.052;2023-01-01T16:09:13;14.80;99.90
47540;DHT22;33280;52.152;21.052;2023-01-01T16:11:42;14.80;99.90
47540;DHT22;33280;52.152;21.052;2023-01-01T16:14:09;14.80;99.90
47540;DHT22;33280;52.152;21.052;2023-01-01T16:16:38;14.70;99.90
47540;DHT22;33280;52.152;21.052;2023-01-01T16:19:13;14.70;99.90
47540;DHT22;33280;52.152;21.052;2023-01-01T16:21:41;14.60;99.90
47540;DHT22;33280;52.152;21.052;2023-01-01T16:24:14;14.60;99.90
47540;DHT22;33280;52.152;21.052;2023-01-01T16:26:42;14.50;99.90
47540;DHT22;33280;52.152;21.052;2023-01-01T16:29:09;14.50;99.90
47540;DHT22;33280;52.152;21.052;2023-01-01T16:31:37;14.50;99.90
47540;DHT22;33280;52.152;21.052;2023-01-01T16:34:04;14.40;99.90
47540;DHT22;33280;52.152;21.052;2023-01-01T16:36:31;14.40;99.90
47540;DHT22;33280;52.152;21.052;2023-01-01T16:39:00;14.40;99.90
47540;DHT22;33280;52.152;21.052;2023-01-01T16:41:27;14.30;99.90
47540;DHT22;33280;52.152;21.052;2023-01-01T16:43:56;14.30;99.90
47540;DHT22;33280;52.152;21.052;2023-01-01T16:46:23;14.40;99.90
47540;DHT22;33280;52.152;21.052;2023-01-01T16:48:52;14.40;99.90
47540;DHT22;33280;52.152;21.052;2023-01-01T16:51:28;14.30;99.90
47540;DHT22;33280;52.152;21.052;2023-01-01T16:54:00;14.30;99.90
47540;DHT22;33280;52.152;21.052;2023-01-01T16:56:38;14.30;99.90
47540;DHT22;33280;52.152;21.052;2023-01-01T16:59:14;14.30;99.90
47540;DHT22;33280;52.152;21.052;2023-01-01T17:01:44;14.30;99.90
47540;DHT22;33280;52.152;21.052;2023-01-01T17:04:11;14.20;99.90
47540;DHT22;33280;52.152;21.052;2023-01-01T17:06:39;14.20;99.90
47540;DHT22;33280;52.152;21.052;2023-01-01T17:09:07;14.20;99.90
47540;DHT22;33280;52.152;21.052;2023-01-01T17:11:39;14.20;99.90
47540;DHT22;33280;52.152;21.052;2023-01-01T17:14:17;14.20;99.90
47540;DHT22;33280;52.152;21.052;2023-01-01T17:17:06;14.10;99.90
47540;DHT22;33280;52.152;21.052;2023-01-01T17:19:39;14.10;99.90
47540;DHT22;33280;52.152;21.052;2023-01-01T17:22:06;14.00;99.90
47540;DHT22;33280;52.152;21.052;2023-01-01T17:24:33;14.00;99.90
47540;DHT22;33280;52.152;21.052;2023-01-01T17:27:03;14.00;99.90
47540;DHT22;33280;52.152;21.052;2023-01-01T17:29:34;13.80;99.90
47540;DHT22;33280;52.152;21.052;2023-01-01T17:32:01;13.90;99.90
47540;DHT22;33280;52.152;21.052;2023-01-01T17:34:28;13.80;99.90
47540;DHT22;33280;52.152;21.052;2023-01-01T17:36:58;13.80;99.90
47540;DHT22;33280;52.152;21.052;2023-01-01T17:39:26;13.80;99.90
47540;DHT22;33280;52.152;21.052;2023-01-01T17:42:03;13.80;99.90
47540;DHT22;33280;52.152;21.052;2023-01-01T17:44:30;13.80;99.90
47540;DHT22;33280;52.152;21.052;2023-01-01T17:47:14;13.80;99.90
47540;DHT22;33280;52.152;21.052;2023-01-01T17:50:13;13.70;99.90
47540;DHT22;33280;52.152;21.052;2023-01-01T17:52:46;13.70;99.90
47540;DHT22;33280;52.152;21.052;2023-01-01T17:55:13;13.60;99.90
47540;DHT22;33280;52.152;21.052;2023-01-01T17:57:40;13.60;99.90
47540;DHT22;33280;52.152;21.052;2023-01-01T18:00:36;13.60;99.90
47540;DHT22;33280;52.152;21.052;2023-01-01T18:03:39;13.50;99.90
47540;DHT22;33280;52.152;21.052;2023-01-01T18:06:21;13.60;99.90
47540;DHT22;33280;52.152;21.052;2023-01-01T18:08:58;13.50;99.90
47540;DHT22;33280;52.152;21.052;2023-01-01T18:11:34;13.40;99.90
47540;DHT22;33280;52.152;21.052;2023-01-01T18:15:23;13.40;99.90
47540;DHT22;33280;52.152;21.052;2023-01-01T18:17:47;13.30;99.90
47540;DHT22;33280;52.152;21.052;2023-01-01T18:20:15;13.30;99.90
47540;DHT22;33280;52.152;21.052;2023-01-01T18:22:44;13.30;99.90